AAL73 TBPB-MDPC
Flight info
| Callsign | AAL73 |
|---|---|
| Flight time | 1h 57m |
| Altitude | 38000 |
| Route | ILURI DCT MAZ B892 ANTEX ANTEX2B |
| Aircraft | B738/M-SDE2E3FGHIRWXY/LB1 |
Departure
| Time | 2026-05-04 23:50 |
|---|---|
| Airport | Grantley Adams International Airport (TBPB) |
Arrival
| Time | 2026-05-05 01:48 |
|---|---|
| Airport | Punta Cana International Airport (MDPC) |
| Time | Latitude | Longitude | Altitude | Speed | Heading |
|---|---|---|---|---|---|
| 2026-05-04 23:16 | 13.07881 | -59.48753 | 180 ft | 0 kts | 346° |
| 2026-05-04 23:45 | 13.07883 | -59.48754 | 180 ft | 0 kts | 345° |
| 2026-05-04 23:46 | 13.07886 | -59.48754 | 180 ft | 0 kts | 344° |
| 2026-05-04 23:46 | 13.07886 | -59.48755 | 180 ft | 0 kts | 341° |
| 2026-05-04 23:46 | 13.07887 | -59.48761 | 180 ft | 1 kts | 247° |
| 2026-05-04 23:46 | 13.07845 | -59.48768 | 179 ft | 12 kts | 187° |
| 2026-05-04 23:47 | 13.07756 | -59.48835 | 177 ft | 22 kts | 237° |
| 2026-05-04 23:47 | 13.07687 | -59.48986 | 177 ft | 25 kts | 252° |
| 2026-05-04 23:47 | 13.07646 | -59.49151 | 180 ft | 26 kts | 259° |
| 2026-05-04 23:47 | 13.07596 | -59.49338 | 178 ft | 30 kts | 255° |
| 2026-05-04 23:48 | 13.07546 | -59.49536 | 179 ft | 32 kts | 257° |
| 2026-05-04 23:48 | 13.07493 | -59.49748 | 178 ft | 34 kts | 256° |
| 2026-05-04 23:48 | 13.07441 | -59.49974 | 181 ft | 36 kts | 258° |
| 2026-05-04 23:48 | 13.07388 | -59.50193 | 182 ft | 31 kts | 256° |
| 2026-05-04 23:49 | 13.07339 | -59.50397 | 185 ft | 32 kts | 256° |
| 2026-05-04 23:49 | 13.07283 | -59.50622 | 188 ft | 34 kts | 256° |
| 2026-05-04 23:49 | 13.07214 | -59.50714 | 188 ft | 13 kts | 165° |
| 2026-05-04 23:49 | 13.07124 | -59.50673 | 186 ft | 16 kts | 91° |
| 2026-05-04 23:50 | 13.07141 | -59.50546 | 184 ft | 29 kts | 84° |
| 2026-05-04 23:50 | 13.07255 | -59.50056 | 175 ft | 122 kts | 76° |
| 2026-05-04 23:50 | 13.07508 | -59.49055 | 301 ft | 185 kts | 77° |
| 2026-05-04 23:50 | 13.07792 | -59.47958 | 1606 ft | 173 kts | 75° |
| 2026-05-04 23:51 | 13.08303 | -59.46973 | 2317 ft | 188 kts | 45° |
| 2026-05-04 23:51 | 13.09460 | -59.46456 | 2892 ft | 216 kts | 7° |
| 2026-05-04 23:51 | 13.10847 | -59.46799 | 3587 ft | 239 kts | 332° |
| 2026-05-04 23:51 | 13.11970 | -59.47909 | 4249 ft | 260 kts | 308° |
| 2026-05-04 23:52 | 13.12932 | -59.49370 | 4957 ft | 275 kts | 306° |
| 2026-05-04 23:52 | 13.14011 | -59.50866 | 5660 ft | 289 kts | 311° |
| 2026-05-04 23:52 | 13.15256 | -59.52341 | 6557 ft | 294 kts | 314° |
| 2026-05-04 23:52 | 13.16627 | -59.53838 | 7507 ft | 299 kts | 316° |
| 2026-05-04 23:53 | 13.18052 | -59.55351 | 8470 ft | 303 kts | 316° |
| 2026-05-04 23:53 | 13.19499 | -59.56889 | 9375 ft | 308 kts | 316° |
| 2026-05-04 23:53 | 13.20962 | -59.58453 | 10308 ft | 312 kts | 316° |
| 2026-05-04 23:53 | 13.22483 | -59.60087 | 10997 ft | 325 kts | 316° |
| 2026-05-04 23:54 | 13.24005 | -59.61727 | 11573 ft | 339 kts | 316° |
| 2026-05-04 23:54 | 13.25558 | -59.63403 | 12085 ft | 354 kts | 316° |
| 2026-05-04 23:54 | 13.27233 | -59.65211 | 12572 ft | 369 kts | 316° |
| 2026-05-04 23:54 | 13.28968 | -59.67086 | 13262 ft | 376 kts | 316° |
| 2026-05-04 23:55 | 13.30671 | -59.68930 | 14076 ft | 378 kts | 316° |
| 2026-05-04 23:55 | 13.32491 | -59.70902 | 14937 ft | 380 kts | 315° |
| 2026-05-04 23:55 | 13.36153 | -59.74870 | 16577 ft | 384 kts | 316° |
| 2026-05-04 23:56 | 13.37999 | -59.76869 | 17365 ft | 387 kts | 315° |
| 2026-05-04 23:56 | 13.39859 | -59.78883 | 18071 ft | 391 kts | 315° |
| 2026-05-04 23:56 | 13.41745 | -59.80926 | 18724 ft | 396 kts | 316° |
| 2026-05-04 23:56 | 13.43648 | -59.82986 | 19358 ft | 400 kts | 315° |
| 2026-05-04 23:57 | 13.45585 | -59.85083 | 19996 ft | 405 kts | 316° |
| 2026-05-04 23:57 | 13.47541 | -59.87199 | 20600 ft | 410 kts | 315° |
| 2026-05-04 23:57 | 13.49522 | -59.89344 | 21192 ft | 414 kts | 315° |
| 2026-05-04 23:57 | 13.51524 | -59.91511 | 21760 ft | 419 kts | 315° |
| 2026-05-04 23:58 | 13.53553 | -59.93708 | 22310 ft | 424 kts | 315° |
| 2026-05-04 23:58 | 13.55592 | -59.95919 | 22942 ft | 426 kts | 315° |
| 2026-05-04 23:58 | 13.57656 | -59.98157 | 23533 ft | 430 kts | 315° |
| 2026-05-04 23:58 | 13.59717 | -60.00394 | 24166 ft | 432 kts | 315° |
| 2026-05-04 23:59 | 13.61791 | -60.02647 | 24775 ft | 434 kts | 315° |
| 2026-05-04 23:59 | 13.63873 | -60.04908 | 25339 ft | 437 kts | 315° |
| 2026-05-04 23:59 | 13.65977 | -60.07194 | 25907 ft | 439 kts | 315° |
| 2026-05-04 23:59 | 13.68090 | -60.09490 | 26463 ft | 442 kts | 315° |
| 2026-05-05 00:00 | 13.70222 | -60.11806 | 26996 ft | 445 kts | 315° |
| 2026-05-05 00:00 | 13.71652 | -60.13362 | 27360 ft | 446 kts | 315° |
| 2026-05-05 00:00 | 13.74515 | -60.16474 | 28056 ft | 450 kts | 315° |
| 2026-05-05 00:00 | 13.76682 | -60.18832 | 28572 ft | 452 kts | 315° |
| 2026-05-05 00:01 | 13.78860 | -60.21201 | 29052 ft | 455 kts | 315° |
| 2026-05-05 00:01 | 13.81053 | -60.23587 | 29600 ft | 456 kts | 315° |
| 2026-05-05 00:01 | 13.83260 | -60.25989 | 30068 ft | 459 kts | 315° |
| 2026-05-05 00:01 | 13.85472 | -60.28398 | 30541 ft | 461 kts | 315° |
| 2026-05-05 00:02 | 13.87697 | -60.30822 | 30996 ft | 463 kts | 315° |
| 2026-05-05 00:02 | 13.89936 | -60.33262 | 31513 ft | 463 kts | 315° |
| 2026-05-05 00:02 | 13.92158 | -60.35685 | 32307 ft | 456 kts | 315° |
| 2026-05-05 00:02 | 13.94352 | -60.38080 | 32978 ft | 453 kts | 315° |
| 2026-05-05 00:03 | 13.96548 | -60.40477 | 33532 ft | 452 kts | 315° |
| 2026-05-05 00:03 | 13.98734 | -60.42864 | 34056 ft | 452 kts | 315° |
| 2026-05-05 00:03 | 14.00912 | -60.45242 | 34537 ft | 452 kts | 315° |
| 2026-05-05 00:03 | 14.03094 | -60.47624 | 35011 ft | 452 kts | 315° |
| 2026-05-05 00:04 | 14.05256 | -60.49986 | 35456 ft | 453 kts | 315° |
| 2026-05-05 00:04 | 14.07415 | -60.52345 | 35896 ft | 453 kts | 315° |
| 2026-05-05 00:04 | 14.09565 | -60.54695 | 36322 ft | 453 kts | 315° |
| 2026-05-05 00:04 | 14.11720 | -60.57051 | 36746 ft | 454 kts | 315° |
| 2026-05-05 00:05 | 14.13869 | -60.59401 | 37148 ft | 454 kts | 315° |
| 2026-05-05 00:05 | 14.16035 | -60.61772 | 37534 ft | 454 kts | 315° |
| 2026-05-05 00:05 | 14.18174 | -60.64112 | 37892 ft | 455 kts | 315° |
| 2026-05-05 00:05 | 14.20319 | -60.66459 | 38032 ft | 458 kts | 315° |
| 2026-05-05 00:06 | 14.22475 | -60.68819 | 38028 ft | 457 kts | 315° |
| 2026-05-05 00:06 | 14.26727 | -60.73476 | 38029 ft | 454 kts | 315° |
| 2026-05-05 00:07 | 14.30959 | -60.78114 | 38032 ft | 455 kts | 315° |
| 2026-05-05 00:07 | 14.35155 | -60.82716 | 38029 ft | 455 kts | 315° |
| 2026-05-05 00:08 | 14.39340 | -60.87307 | 38030 ft | 456 kts | 315° |
| 2026-05-05 00:08 | 14.43530 | -60.91907 | 38033 ft | 456 kts | 315° |
| 2026-05-05 00:09 | 14.47715 | -60.96504 | 38032 ft | 456 kts | 315° |
| 2026-05-05 00:09 | 14.51921 | -61.01126 | 38032 ft | 456 kts | 315° |
| 2026-05-05 00:10 | 14.56141 | -61.05767 | 38033 ft | 455 kts | 315° |
| 2026-05-05 00:10 | 14.60343 | -61.10394 | 38034 ft | 454 kts | 315° |
| 2026-05-05 00:11 | 14.64564 | -61.15044 | 38032 ft | 455 kts | 315° |
| 2026-05-05 00:11 | 14.68816 | -61.19726 | 38031 ft | 456 kts | 315° |
| 2026-05-05 00:12 | 14.73061 | -61.24403 | 38029 ft | 455 kts | 315° |
| 2026-05-05 00:12 | 14.77311 | -61.29091 | 38027 ft | 455 kts | 315° |
| 2026-05-05 00:13 | 14.81533 | -61.33752 | 38028 ft | 454 kts | 315° |
| 2026-05-05 00:13 | 14.85749 | -61.38409 | 38029 ft | 454 kts | 315° |
| 2026-05-05 00:14 | 14.89960 | -61.43065 | 38026 ft | 454 kts | 315° |
| 2026-05-05 00:14 | 14.94178 | -61.47729 | 38028 ft | 454 kts | 315° |
| 2026-05-05 00:15 | 14.98389 | -61.52387 | 38027 ft | 455 kts | 315° |
| 2026-05-05 00:15 | 15.02640 | -61.57093 | 38028 ft | 456 kts | 315° |
| 2026-05-05 00:16 | 15.06865 | -61.61774 | 38028 ft | 455 kts | 315° |
| 2026-05-05 00:16 | 15.11086 | -61.66452 | 38030 ft | 454 kts | 315° |
| 2026-05-05 00:17 | 15.15299 | -61.71128 | 38028 ft | 454 kts | 315° |
| 2026-05-05 00:17 | 15.19545 | -61.75844 | 38030 ft | 454 kts | 315° |
| 2026-05-05 00:18 | 15.23792 | -61.80562 | 38028 ft | 454 kts | 315° |
| 2026-05-05 00:18 | 15.28037 | -61.85279 | 38032 ft | 455 kts | 315° |
| 2026-05-05 00:19 | 15.32281 | -61.90000 | 38027 ft | 453 kts | 314° |
| 2026-05-05 00:19 | 15.36520 | -61.94717 | 38031 ft | 453 kts | 314° |
| 2026-05-05 00:20 | 15.40753 | -61.99431 | 38029 ft | 453 kts | 314° |
| 2026-05-05 00:20 | 15.44994 | -62.04156 | 38028 ft | 453 kts | 314° |
| 2026-05-05 00:21 | 15.49201 | -62.08847 | 38028 ft | 452 kts | 314° |
| 2026-05-05 00:21 | 15.53432 | -62.13569 | 38028 ft | 452 kts | 314° |
| 2026-05-05 00:22 | 15.57644 | -62.18271 | 38028 ft | 451 kts | 314° |
| 2026-05-05 00:22 | 15.61859 | -62.22979 | 38029 ft | 451 kts | 314° |
| 2026-05-05 00:23 | 15.66075 | -62.27692 | 38026 ft | 450 kts | 314° |
| 2026-05-05 00:23 | 15.70276 | -62.32393 | 38026 ft | 450 kts | 314° |
| 2026-05-05 00:24 | 15.74493 | -62.37116 | 38026 ft | 449 kts | 314° |
| 2026-05-05 00:24 | 15.78713 | -62.41843 | 38027 ft | 450 kts | 314° |
| 2026-05-05 00:25 | 15.82935 | -62.46573 | 38028 ft | 450 kts | 314° |
| 2026-05-05 00:25 | 15.87146 | -62.51296 | 38028 ft | 449 kts | 314° |
| 2026-05-05 00:26 | 15.91328 | -62.55991 | 38029 ft | 448 kts | 314° |
| 2026-05-05 00:26 | 15.95518 | -62.60697 | 38028 ft | 448 kts | 314° |
| 2026-05-05 00:27 | 15.99698 | -62.65396 | 38028 ft | 448 kts | 314° |
| 2026-05-05 00:27 | 16.03868 | -62.70086 | 38029 ft | 447 kts | 313° |
| 2026-05-05 00:28 | 16.08025 | -62.74765 | 38030 ft | 446 kts | 313° |
| 2026-05-05 00:28 | 16.12206 | -62.79474 | 38029 ft | 447 kts | 313° |
| 2026-05-05 00:29 | 16.16360 | -62.84155 | 38029 ft | 447 kts | 313° |
| 2026-05-05 00:29 | 16.20501 | -62.88824 | 38029 ft | 446 kts | 313° |
| 2026-05-05 00:30 | 16.24633 | -62.93489 | 38029 ft | 446 kts | 313° |
| 2026-05-05 00:30 | 16.28634 | -62.98268 | 38029 ft | 446 kts | 307° |
| 2026-05-05 00:31 | 16.31862 | -63.03635 | 38029 ft | 446 kts | 300° |
| 2026-05-05 00:31 | 16.34677 | -63.09209 | 38030 ft | 445 kts | 298° |
| 2026-05-05 00:32 | 16.37404 | -63.14843 | 38029 ft | 445 kts | 298° |
| 2026-05-05 00:32 | 16.40031 | -63.20305 | 38029 ft | 445 kts | 298° |
| 2026-05-05 00:33 | 16.42531 | -63.25496 | 38031 ft | 445 kts | 298° |
| 2026-05-05 00:33 | 16.45023 | -63.30662 | 38028 ft | 445 kts | 298° |
| 2026-05-05 00:34 | 16.47518 | -63.35827 | 38030 ft | 444 kts | 298° |
| 2026-05-05 00:34 | 16.50002 | -63.40971 | 38030 ft | 443 kts | 298° |
| 2026-05-05 00:35 | 16.52486 | -63.46113 | 38030 ft | 443 kts | 298° |
| 2026-05-05 00:35 | 16.54964 | -63.51249 | 38028 ft | 441 kts | 298° |
| 2026-05-05 00:36 | 16.57481 | -63.56468 | 38031 ft | 442 kts | 298° |
| 2026-05-05 00:36 | 16.60023 | -63.61743 | 38029 ft | 441 kts | 298° |
| 2026-05-05 00:37 | 16.62522 | -63.66933 | 38030 ft | 441 kts | 297° |
| 2026-05-05 00:37 | 16.64959 | -63.71999 | 38030 ft | 440 kts | 297° |
| 2026-05-05 00:38 | 16.67403 | -63.77083 | 38030 ft | 441 kts | 298° |
| 2026-05-05 00:38 | 16.69852 | -63.82180 | 38030 ft | 441 kts | 298° |
| 2026-05-05 00:39 | 16.72283 | -63.87246 | 38026 ft | 439 kts | 298° |
| 2026-05-05 00:39 | 16.74800 | -63.92491 | 38029 ft | 440 kts | 298° |
| 2026-05-05 00:40 | 16.77321 | -63.97752 | 38028 ft | 437 kts | 298° |
| 2026-05-05 00:40 | 16.79810 | -64.02950 | 38027 ft | 438 kts | 298° |
| 2026-05-05 00:41 | 16.82296 | -64.08144 | 38027 ft | 438 kts | 298° |
| 2026-05-05 00:41 | 16.84794 | -64.13367 | 38028 ft | 439 kts | 297° |
| 2026-05-05 00:42 | 16.87295 | -64.18602 | 38026 ft | 438 kts | 298° |
| 2026-05-05 00:42 | 16.89765 | -64.23776 | 38028 ft | 437 kts | 298° |
| 2026-05-05 00:43 | 16.92245 | -64.28973 | 38026 ft | 438 kts | 298° |
| 2026-05-05 00:43 | 16.94722 | -64.34171 | 38032 ft | 437 kts | 298° |
| 2026-05-05 00:44 | 16.97203 | -64.39380 | 38025 ft | 437 kts | 297° |
| 2026-05-05 00:44 | 16.99696 | -64.44618 | 38020 ft | 438 kts | 297° |
| 2026-05-05 00:45 | 17.02353 | -64.50204 | 38015 ft | 438 kts | 297° |
| 2026-05-05 00:45 | 17.04984 | -64.55744 | 38024 ft | 438 kts | 297° |
| 2026-05-05 00:46 | 17.07624 | -64.61305 | 38030 ft | 436 kts | 297° |
| 2026-05-05 00:46 | 17.10240 | -64.66821 | 38034 ft | 437 kts | 297° |
| 2026-05-05 00:47 | 17.12870 | -64.72370 | 38030 ft | 437 kts | 297° |
| 2026-05-05 00:47 | 17.15491 | -64.77906 | 38032 ft | 437 kts | 297° |
| 2026-05-05 00:48 | 17.18115 | -64.83453 | 38031 ft | 438 kts | 297° |
| 2026-05-05 00:48 | 17.20743 | -64.89014 | 38032 ft | 437 kts | 297° |
| 2026-05-05 00:49 | 17.23366 | -64.94567 | 38032 ft | 438 kts | 297° |
| 2026-05-05 00:49 | 17.25988 | -65.00124 | 38029 ft | 436 kts | 297° |
| 2026-05-05 00:50 | 17.28578 | -65.05617 | 38030 ft | 435 kts | 297° |
| 2026-05-05 00:50 | 17.31165 | -65.11109 | 38029 ft | 437 kts | 297° |
| 2026-05-05 00:51 | 17.33773 | -65.16648 | 38030 ft | 436 kts | 297° |
| 2026-05-05 00:51 | 17.36371 | -65.22174 | 38031 ft | 436 kts | 297° |
| 2026-05-05 00:52 | 17.38974 | -65.27714 | 38030 ft | 435 kts | 297° |
| 2026-05-05 00:52 | 17.41569 | -65.33243 | 38033 ft | 435 kts | 297° |
| 2026-05-05 00:53 | 17.44166 | -65.38780 | 38031 ft | 436 kts | 297° |
| 2026-05-05 00:53 | 17.46733 | -65.44256 | 38032 ft | 436 kts | 297° |
| 2026-05-05 00:54 | 17.49114 | -65.49341 | 38033 ft | 436 kts | 297° |
| 2026-05-05 00:54 | 17.51496 | -65.54434 | 38033 ft | 436 kts | 297° |
| 2026-05-05 00:55 | 17.53862 | -65.59496 | 38034 ft | 434 kts | 297° |
| 2026-05-05 00:55 | 17.56231 | -65.64568 | 38032 ft | 434 kts | 297° |
| 2026-05-05 00:56 | 17.58595 | -65.69633 | 38039 ft | 434 kts | 297° |
| 2026-05-05 00:56 | 17.60954 | -65.74690 | 38038 ft | 434 kts | 297° |
| 2026-05-05 00:57 | 17.63300 | -65.79725 | 38039 ft | 432 kts | 296° |
| 2026-05-05 00:57 | 17.65660 | -65.84792 | 38039 ft | 434 kts | 297° |
| 2026-05-05 00:58 | 17.68017 | -65.89859 | 38040 ft | 433 kts | 296° |
| 2026-05-05 00:58 | 17.70377 | -65.94936 | 38041 ft | 434 kts | 296° |
| 2026-05-05 00:59 | 17.72722 | -65.99984 | 38040 ft | 433 kts | 296° |
| 2026-05-05 00:59 | 17.75068 | -66.05040 | 38033 ft | 434 kts | 296° |
| 2026-05-05 01:00 | 17.77420 | -66.10112 | 38029 ft | 433 kts | 296° |
| 2026-05-05 01:00 | 17.79764 | -66.15172 | 38030 ft | 433 kts | 296° |
| 2026-05-05 01:01 | 17.82114 | -66.20245 | 38037 ft | 434 kts | 296° |
| 2026-05-05 01:01 | 17.84466 | -66.25330 | 38042 ft | 433 kts | 296° |
| 2026-05-05 01:02 | 17.86799 | -66.30378 | 38049 ft | 432 kts | 296° |
| 2026-05-05 01:02 | 17.89149 | -66.35467 | 38046 ft | 432 kts | 296° |
| 2026-05-05 01:03 | 17.91505 | -66.40571 | 38047 ft | 431 kts | 296° |
| 2026-05-05 01:03 | 17.93876 | -66.45714 | 38051 ft | 432 kts | 296° |
| 2026-05-05 01:04 | 17.96258 | -66.50886 | 38049 ft | 431 kts | 296° |
| 2026-05-05 01:04 | 17.99840 | -66.58673 | 38044 ft | 431 kts | 296° |
| 2026-05-05 01:05 | 18.02232 | -66.63877 | 38044 ft | 430 kts | 296° |
| 2026-05-05 01:05 | 18.04616 | -66.69067 | 38046 ft | 433 kts | 296° |
| 2026-05-05 01:06 | 18.06993 | -66.74244 | 38049 ft | 432 kts | 296° |
| 2026-05-05 01:06 | 18.09363 | -66.79413 | 38051 ft | 431 kts | 296° |
| 2026-05-05 01:07 | 18.11724 | -66.84566 | 38054 ft | 432 kts | 296° |
| 2026-05-05 01:07 | 18.14085 | -66.89725 | 38051 ft | 431 kts | 295° |
| 2026-05-05 01:08 | 18.16394 | -66.94774 | 37805 ft | 419 kts | 295° |
| 2026-05-05 01:08 | 18.17521 | -66.97241 | 37315 ft | 415 kts | 296° |
| 2026-05-05 01:08 | 18.18706 | -66.99833 | 36615 ft | 415 kts | 295° |
| 2026-05-05 01:09 | 18.19929 | -67.02512 | 35950 ft | 414 kts | 295° |
| 2026-05-05 01:09 | 18.21149 | -67.05183 | 35275 ft | 413 kts | 295° |
| 2026-05-05 01:09 | 18.22382 | -67.07884 | 34593 ft | 414 kts | 295° |
| 2026-05-05 01:09 | 18.23614 | -67.10584 | 33880 ft | 416 kts | 295° |
| 2026-05-05 01:10 | 18.24828 | -67.13320 | 33135 ft | 416 kts | 292° |
| 2026-05-05 01:10 | 18.25867 | -67.16139 | 32409 ft | 417 kts | 289° |
| 2026-05-05 01:10 | 18.26757 | -67.19026 | 31724 ft | 419 kts | 287° |
| 2026-05-05 01:10 | 18.27569 | -67.21953 | 30961 ft | 421 kts | 285° |
| 2026-05-05 01:11 | 18.28348 | -67.24912 | 30151 ft | 423 kts | 285° |
| 2026-05-05 01:11 | 18.29116 | -67.27889 | 29313 ft | 426 kts | 285° |
| 2026-05-05 01:11 | 18.29889 | -67.30889 | 28441 ft | 430 kts | 285° |
| 2026-05-05 01:11 | 18.30671 | -67.33917 | 27532 ft | 434 kts | 285° |
| 2026-05-05 01:12 | 18.31466 | -67.36975 | 26584 ft | 438 kts | 285° |
| 2026-05-05 01:12 | 18.32271 | -67.40061 | 25591 ft | 443 kts | 285° |
| 2026-05-05 01:12 | 18.33090 | -67.43188 | 24549 ft | 448 kts | 284° |
| 2026-05-05 01:12 | 18.33916 | -67.46335 | 23781 ft | 450 kts | 284° |
| 2026-05-05 01:13 | 18.34762 | -67.49564 | 23174 ft | 470 kts | 284° |
| 2026-05-05 01:13 | 18.35632 | -67.52880 | 22485 ft | 471 kts | 284° |
| 2026-05-05 01:13 | 18.36496 | -67.56167 | 21810 ft | 464 kts | 284° |
| 2026-05-05 01:13 | 18.37344 | -67.59398 | 21127 ft | 458 kts | 285° |
| 2026-05-05 01:14 | 18.38182 | -67.62590 | 20436 ft | 451 kts | 285° |
| 2026-05-05 01:14 | 18.39008 | -67.65744 | 19742 ft | 445 kts | 285° |
| 2026-05-05 01:14 | 18.39820 | -67.68847 | 19054 ft | 439 kts | 285° |
| 2026-05-05 01:14 | 18.40620 | -67.71907 | 18369 ft | 432 kts | 285° |
| 2026-05-05 01:15 | 18.41407 | -67.74923 | 17692 ft | 426 kts | 285° |
| 2026-05-05 01:15 | 18.42182 | -67.77896 | 17015 ft | 419 kts | 285° |
| 2026-05-05 01:15 | 18.42939 | -67.80798 | 16536 ft | 408 kts | 285° |
| 2026-05-05 01:15 | 18.43670 | -67.83605 | 16271 ft | 392 kts | 285° |
| 2026-05-05 01:16 | 18.44373 | -67.86305 | 16128 ft | 374 kts | 285° |
| 2026-05-05 01:16 | 18.45035 | -67.88849 | 15981 ft | 358 kts | 285° |
| 2026-05-05 01:16 | 18.45671 | -67.91298 | 15829 ft | 343 kts | 285° |
| 2026-05-05 01:16 | 18.46279 | -67.93638 | 15678 ft | 329 kts | 285° |
| 2026-05-05 01:17 | 18.46866 | -67.95896 | 15533 ft | 316 kts | 285° |
| 2026-05-05 01:17 | 18.47442 | -67.98055 | 15394 ft | 304 kts | 287° |
| 2026-05-05 01:17 | 18.48165 | -68.00112 | 15155 ft | 297 kts | 295° |
| 2026-05-05 01:17 | 18.49201 | -68.01976 | 14738 ft | 297 kts | 304° |
| 2026-05-05 01:18 | 18.50437 | -68.03726 | 14331 ft | 296 kts | 307° |
| 2026-05-05 01:18 | 18.51655 | -68.05342 | 13980 ft | 293 kts | 308° |
| 2026-05-05 01:18 | 18.52795 | -68.06857 | 13698 ft | 289 kts | 307° |
| 2026-05-05 01:18 | 18.53926 | -68.08390 | 13379 ft | 287 kts | 307° |
| 2026-05-05 01:19 | 18.55044 | -68.09930 | 13041 ft | 286 kts | 307° |
| 2026-05-05 01:19 | 18.56134 | -68.11449 | 12738 ft | 284 kts | 307° |
| 2026-05-05 01:19 | 18.57221 | -68.12969 | 12389 ft | 283 kts | 307° |
| 2026-05-05 01:19 | 18.58293 | -68.14470 | 12056 ft | 282 kts | 307° |
| 2026-05-05 01:20 | 18.59376 | -68.15987 | 11712 ft | 281 kts | 307° |
| 2026-05-05 01:20 | 18.60505 | -68.17568 | 11296 ft | 283 kts | 307° |
| 2026-05-05 01:20 | 18.61653 | -68.19176 | 10874 ft | 285 kts | 307° |
| 2026-05-05 01:20 | 18.62800 | -68.20782 | 10500 ft | 284 kts | 307° |
| 2026-05-05 01:21 | 18.63910 | -68.22336 | 10204 ft | 281 kts | 307° |
| 2026-05-05 01:21 | 18.65015 | -68.23888 | 9878 ft | 279 kts | 307° |
| 2026-05-05 01:21 | 18.66140 | -68.25494 | 9432 ft | 281 kts | 307° |
| 2026-05-05 01:21 | 18.67285 | -68.27145 | 9081 ft | 279 kts | 307° |
| 2026-05-05 01:22 | 18.68415 | -68.28778 | 8718 ft | 278 kts | 307° |
| 2026-05-05 01:22 | 18.69447 | -68.30373 | 8579 ft | 269 kts | 300° |
| 2026-05-05 01:22 | 18.70112 | -68.32046 | 8490 ft | 257 kts | 280° |
| 2026-05-05 01:22 | 18.70066 | -68.33730 | 8293 ft | 251 kts | 253° |
| 2026-05-05 01:23 | 18.69500 | -68.35276 | 8065 ft | 246 kts | 244° |
| 2026-05-05 01:23 | 18.68834 | -68.36776 | 7827 ft | 244 kts | 243° |
| 2026-05-05 01:23 | 18.68175 | -68.38289 | 7528 ft | 245 kts | 244° |
| 2026-05-05 01:23 | 18.67551 | -68.39822 | 7249 ft | 245 kts | 248° |
| 2026-05-05 01:24 | 18.67052 | -68.41447 | 6975 ft | 245 kts | 252° |
| 2026-05-05 01:24 | 18.66633 | -68.43124 | 6696 ft | 244 kts | 254° |
| 2026-05-05 01:24 | 18.66228 | -68.44813 | 6423 ft | 243 kts | 253° |
| 2026-05-05 01:24 | 18.65821 | -68.46487 | 6177 ft | 241 kts | 253° |
| 2026-05-05 01:25 | 18.65403 | -68.48175 | 5889 ft | 241 kts | 253° |
| 2026-05-05 01:25 | 18.64983 | -68.49851 | 5623 ft | 240 kts | 253° |
| 2026-05-05 01:25 | 18.64559 | -68.51533 | 5334 ft | 240 kts | 253° |
| 2026-05-05 01:25 | 18.64122 | -68.53202 | 5054 ft | 239 kts | 249° |
| 2026-05-05 01:26 | 18.63428 | -68.54747 | 4794 ft | 233 kts | 228° |
| 2026-05-05 01:26 | 18.62197 | -68.55680 | 4651 ft | 220 kts | 194° |
| 2026-05-05 01:26 | 18.60709 | -68.55826 | 4446 ft | 215 kts | 172° |
| 2026-05-05 01:26 | 18.59270 | -68.55643 | 4220 ft | 213 kts | 171° |
| 2026-05-05 01:27 | 18.57869 | -68.55466 | 4046 ft | 208 kts | 168° |
| 2026-05-05 01:27 | 18.56598 | -68.54986 | 3939 ft | 197 kts | 143° |
| 2026-05-05 01:27 | 18.55782 | -68.53975 | 3861 ft | 187 kts | 116° |
| 2026-05-05 01:27 | 18.55413 | -68.52766 | 3795 ft | 179 kts | 101° |
| 2026-05-05 01:28 | 18.55366 | -68.51562 | 3746 ft | 168 kts | 88° |
| 2026-05-05 01:28 | 18.55495 | -68.50446 | 3670 ft | 156 kts | 85° |
| 2026-05-05 01:28 | 18.55631 | -68.49383 | 3574 ft | 156 kts | 86° |
| 2026-05-05 01:28 | 18.55767 | -68.48286 | 3377 ft | 171 kts | 86° |
| 2026-05-05 01:29 | 18.55886 | -68.47112 | 3195 ft | 167 kts | 89° |
| 2026-05-05 01:29 | 18.55925 | -68.46003 | 3150 ft | 159 kts | 93° |
| 2026-05-05 01:29 | 18.55934 | -68.44866 | 2739 ft | 175 kts | 91° |
| 2026-05-05 01:29 | 18.56020 | -68.43647 | 2344 ft | 182 kts | 87° |
| 2026-05-05 01:30 | 18.56125 | -68.42403 | 1636 ft | 199 kts | 88° |
| 2026-05-05 01:30 | 18.56238 | -68.41090 | 1156 ft | 191 kts | 85° |
| 2026-05-05 01:30 | 18.56442 | -68.39801 | 425 ft | 202 kts | 83° |
| 2026-05-05 01:30 | 18.56600 | -68.38581 | 451 ft | 174 kts | 86° |
| 2026-05-05 01:31 | 18.56660 | -68.37442 | 248 ft | 187 kts | 84° |
| 2026-05-05 01:31 | 18.56774 | -68.36212 | 987 ft | 192 kts | 84° |
| 2026-05-05 01:31 | 18.56933 | -68.34879 | 751 ft | 205 kts | 87° |
| 2026-05-05 01:31 | 18.57009 | -68.33480 | 568 ft | 234 kts | 91° |
| 2026-05-05 01:32 | 18.56711 | -68.31603 | 963 ft | 265 kts | 109° |
| 2026-05-05 01:32 | 18.56162 | -68.29839 | 1729 ft | 281 kts | 109° |
| 2026-05-05 01:32 | 18.55513 | -68.27930 | 1908 ft | 304 kts | 115° |
| 2026-05-05 01:32 | 18.54337 | -68.26250 | 1696 ft | 268 kts | 138° |
| 2026-05-05 01:33 | 18.52859 | -68.25380 | 1688 ft | 231 kts | 160° |
| 2026-05-05 01:33 | 18.51421 | -68.25056 | 1682 ft | 218 kts | 175° |
| 2026-05-05 01:33 | 18.50018 | -68.25364 | 1691 ft | 209 kts | 201° |
| 2026-05-05 01:33 | 18.48735 | -68.26063 | 1691 ft | 206 kts | 205° |
| 2026-05-05 01:34 | 18.47475 | -68.26790 | 1689 ft | 206 kts | 205° |
| 2026-05-05 01:34 | 18.46213 | -68.27518 | 1687 ft | 207 kts | 205° |
| 2026-05-05 01:34 | 18.44949 | -68.28245 | 1686 ft | 206 kts | 205° |
| 2026-05-05 01:34 | 18.43752 | -68.29041 | 1695 ft | 223 kts | 220° |
| 2026-05-05 01:35 | 18.43019 | -68.30381 | 1681 ft | 220 kts | 259° |
| 2026-05-05 01:35 | 18.43269 | -68.31932 | 1693 ft | 213 kts | 301° |
| 2026-05-05 01:35 | 18.44213 | -68.33030 | 1701 ft | 212 kts | 320° |
| 2026-05-05 01:35 | 18.45240 | -68.33988 | 1686 ft | 212 kts | 317° |
| 2026-05-05 01:36 | 18.46186 | -68.35009 | 1688 ft | 213 kts | 313° |
| 2026-05-05 01:36 | 18.47085 | -68.36078 | 1683 ft | 212 kts | 311° |
| 2026-05-05 01:36 | 18.47966 | -68.37161 | 1686 ft | 214 kts | 311° |
| 2026-05-05 01:36 | 18.48856 | -68.38255 | 1684 ft | 213 kts | 311° |
| 2026-05-05 01:37 | 18.49764 | -68.39365 | 1689 ft | 214 kts | 311° |
| 2026-05-05 01:37 | 18.50678 | -68.40479 | 1690 ft | 214 kts | 311° |
| 2026-05-05 01:37 | 18.51597 | -68.41598 | 1691 ft | 214 kts | 311° |
| 2026-05-05 01:37 | 18.52506 | -68.42706 | 1689 ft | 214 kts | 311° |
| 2026-05-05 01:38 | 18.53415 | -68.43815 | 1689 ft | 213 kts | 311° |
| 2026-05-05 01:38 | 18.54326 | -68.44926 | 1691 ft | 214 kts | 311° |
| 2026-05-05 01:38 | 18.55263 | -68.46068 | 1689 ft | 212 kts | 311° |
| 2026-05-05 01:38 | 18.56224 | -68.47238 | 1691 ft | 212 kts | 311° |
| 2026-05-05 01:39 | 18.57190 | -68.48416 | 1691 ft | 214 kts | 311° |
| 2026-05-05 01:39 | 18.58154 | -68.49596 | 1689 ft | 213 kts | 311° |
| 2026-05-05 01:39 | 18.59118 | -68.50773 | 1690 ft | 213 kts | 311° |
| 2026-05-05 01:39 | 18.60082 | -68.51947 | 1693 ft | 213 kts | 311° |
| 2026-05-05 01:40 | 18.61046 | -68.53123 | 1693 ft | 213 kts | 311° |
| 2026-05-05 01:40 | 18.61918 | -68.54303 | 1690 ft | 213 kts | 300° |
| 2026-05-05 01:40 | 18.62373 | -68.55689 | 1694 ft | 212 kts | 271° |
| 2026-05-05 01:40 | 18.62194 | -68.57102 | 1703 ft | 208 kts | 248° |
| 2026-05-05 01:41 | 18.61605 | -68.58370 | 1696 ft | 205 kts | 232° |
| 2026-05-05 01:41 | 18.60664 | -68.59358 | 1695 ft | 199 kts | 208° |
| 2026-05-05 01:41 | 18.59427 | -68.59849 | 1701 ft | 194 kts | 187° |
| 2026-05-05 01:41 | 18.58101 | -68.59907 | 1695 ft | 191 kts | 170° |
| 2026-05-05 01:42 | 18.56882 | -68.59478 | 1693 ft | 185 kts | 147° |
| 2026-05-05 01:42 | 18.55950 | -68.58655 | 1694 ft | 176 kts | 130° |
| 2026-05-05 01:42 | 18.55299 | -68.57634 | 1694 ft | 168 kts | 114° |
| 2026-05-05 01:42 | 18.55016 | -68.56466 | 1705 ft | 167 kts | 96° |
| 2026-05-05 01:43 | 18.55059 | -68.55300 | 1700 ft | 156 kts | 86° |
| 2026-05-05 01:43 | 18.55183 | -68.54220 | 1679 ft | 157 kts | 86° |
| 2026-05-05 01:43 | 18.55286 | -68.53157 | 1588 ft | 146 kts | 88° |
| 2026-05-05 01:43 | 18.55371 | -68.52137 | 1471 ft | 146 kts | 88° |
| 2026-05-05 01:44 | 18.55458 | -68.51134 | 1323 ft | 144 kts | 88° |
| 2026-05-05 01:44 | 18.55545 | -68.50139 | 1188 ft | 144 kts | 88° |
| 2026-05-05 01:44 | 18.55633 | -68.49138 | 1050 ft | 145 kts | 88° |
| 2026-05-05 01:44 | 18.55720 | -68.48144 | 984 ft | 143 kts | 88° |
| 2026-05-05 01:45 | 18.55806 | -68.47154 | 990 ft | 145 kts | 88° |
| 2026-05-05 01:45 | 18.55892 | -68.46170 | 988 ft | 143 kts | 88° |
| 2026-05-05 01:45 | 18.55976 | -68.45202 | 991 ft | 143 kts | 88° |
| 2026-05-05 01:45 | 18.56059 | -68.44244 | 990 ft | 143 kts | 88° |
| 2026-05-05 01:46 | 18.56142 | -68.43291 | 990 ft | 143 kts | 88° |
| 2026-05-05 01:46 | 18.56223 | -68.42317 | 1011 ft | 156 kts | 87° |
| 2026-05-05 01:46 | 18.56352 | -68.41253 | 1077 ft | 158 kts | 84° |
| 2026-05-05 01:46 | 18.56473 | -68.40203 | 780 ft | 157 kts | 88° |
| 2026-05-05 01:47 | 18.56519 | -68.39162 | 370 ft | 157 kts | 91° |
| 2026-05-05 01:47 | 18.56568 | -68.38194 | 205 ft | 142 kts | 85° |
| 2026-05-05 01:47 | 18.56659 | -68.37314 | 52 ft | 129 kts | 87° |
| 2026-05-05 01:47 | 18.56715 | -68.36671 | 41 ft | 80 kts | 84° |
| 2026-05-05 01:48 | 18.56750 | -68.36384 | 39 ft | 10 kts | 123° |
| 2026-05-05 01:48 | 18.56709 | -68.36403 | 39 ft | 7 kts | 212° |
| 2026-05-05 01:48 | 18.56669 | -68.36419 | 39 ft | 6 kts | 183° |
| 2026-05-05 01:48 | 18.56628 | -68.36417 | 39 ft | 6 kts | 175° |
| 2026-05-05 01:49 | 18.56583 | -68.36412 | 39 ft | 7 kts | 174° |
| 2026-05-05 01:49 | 18.56534 | -68.36405 | 39 ft | 7 kts | 171° |
| 2026-05-05 01:49 | 18.56481 | -68.36399 | 39 ft | 8 kts | 175° |
| 2026-05-05 01:49 | 18.56425 | -68.36394 | 39 ft | 8 kts | 178° |
| 2026-05-05 01:50 | 18.56391 | -68.36392 | 39 ft | 0 kts | 173° |
| 2026-05-05 01:50 | 18.56387 | -68.36391 | 39 ft | 0 kts | 177° |
| 2026-05-05 01:50 | 18.56380 | -68.36390 | 39 ft | 0 kts | 172° |